Kollan Island, Australia
Current Conditions -  °F | °C
As of 8:00 PM on Friday 28 Nov 2014 (Local Time) from YCIN Reporting Station
Clear Clear  
Wind Chill: 88°   Ceiling: Unl
Heat Index: 98°   Visibility: NA
Dew Point: 75°   Wind: 7mph
Humidity: 66%   Direction: 310°NW
Pressure: 29.74"   Gusts: NA
Location:  16.11°S, 123.69°E
Report Text: YCIN 281200Z AUTO 31006KT //// // NCD 31/24 Q1007
Loading
Personal Weather Stations






























Interactive Weather Map New forecast layout! Learn more

10-Day Weather Forecast

Advertisements
Track Severe Weather on mobile